Time;durP1;ratioP1;P1;durP2;ratioP2;P2;SDS_P1;SDS_P2;PMS_P1;PMS_P2;Temp;Humidity;BMP_temperature;BMP_pressure;BME280_temperature;BME280_humidity;BME280_pressure;Samples;Min_cycle;Max_cycle;Signal;HPM_P1;HPM_P2
2023/02/06 00:01:35;;;;;;;11.27;5.43;;;;;;;1.82;100.00;102773.50;4971807;28;20485;-71
2023/02/06 00:04:01;;;;;;;2.27;2.07;;;;;;;1.83;100.00;102778.69;4971541;28;20170;-72
2023/02/06 00:06:26;;;;;;;0.60;0.60;;;;;;;1.82;100.00;102781.56;4971854;28;20178;-72
2023/02/06 00:08:51;;;;;;;2.07;1.97;;;;;;;1.82;100.00;102778.88;4971792;28;20201;-71
2023/02/06 00:11:17;;;;;;;0.00;0.00;;;;;;;1.84;100.00;102776.81;4973037;28;20212;-71
2023/02/06 00:13:43;;;;;;;0.00;0.00;;;;;;;1.87;100.00;102765.63;4975659;28;20186;-72
2023/02/06 00:16:25;;;;;;;0.00;0.00;;;;;;;1.90;100.00;102773.34;4975649;28;20177;-71
2023/02/06 00:18:51;;;;;;;5.50;2.60;;;;;;;1.92;100.00;102771.28;4974475;28;20273;-72
2023/02/06 00:21:20;;;;;;;0.00;0.00;;;;;;;1.81;100.00;102771.81;4975447;28;20190;-72
2023/02/06 00:23:49;;;;;;;1.07;0.53;;;;;;;1.87;100.00;102760.25;4975731;28;20292;-71
2023/02/06 00:26:14;;;;;;;0.67;0.67;;;;;;;1.94;100.00;102756.59;4975433;28;20206;-71
2023/02/06 00:28:40;;;;;;;0.50;0.47;;;;;;;1.93;100.00;102752.22;4974111;28;20209;-71
2023/02/06 00:31:06;;;;;;;0.93;0.93;;;;;;;1.98;100.00;102754.31;4975265;28;20190;-72
2023/02/06 00:33:32;;;;;;;0.53;0.53;;;;;;;1.98;100.00;102757.03;4975390;28;20174;-71
2023/02/06 00:35:57;;;;;;;0.00;0.00;;;;;;;2.02;100.00;102756.41;4975335;28;20176;-71
2023/02/06 00:38:22;;;;;;;1.20;1.20;;;;;;;2.04;100.00;102758.94;4973992;28;20198;-71
2023/02/06 00:40:48;;;;;;;1.13;1.13;;;;;;;2.09;100.00;102751.91;4975195;28;20256;-71
2023/02/06 00:43:13;;;;;;;2.00;1.97;;;;;;;2.11;100.00;102759.81;4975293;28;20208;-72
2023/02/06 00:45:39;;;;;;;2.53;2.43;;;;;;;2.08;100.00;102758.34;4975030;28;20641;-72
2023/02/06 00:48:04;;;;;;;0.20;0.20;;;;;;;2.06;100.00;102748.78;4975158;28;20174;-71
2023/02/06 00:50:29;;;;;;;2.70;2.43;;;;;;;2.02;100.00;102755.59;4974897;28;20796;-72
2023/02/06 00:52:55;;;;;;;1.63;1.53;;;;;;;2.05;100.00;102766.00;4974972;28;20174;-71
2023/02/06 00:55:20;;;;;;;1.27;1.27;;;;;;;2.06;100.00;102759.56;4975077;28;20178;-72
2023/02/06 00:57:46;;;;;;;3.17;2.90;;;;;;;2.04;100.00;102767.03;4974882;28;20496;-73
2023/02/06 01:00:12;;;;;;;0.80;0.47;;;;;;;2.02;100.00;102761.81;4975050;28;20632;-72
2023/02/06 01:02:37;;;;;;;3.87;1.90;;;;;;;2.01;100.00;102772.78;4974622;28;20174;-71
2023/02/06 01:05:03;;;;;;;2.87;2.63;;;;;;;1.97;100.00;102766.97;4974796;28;20197;-74
2023/02/06 01:07:28;;;;;;;3.73;3.43;;;;;;;1.94;100.00;102769.22;4975022;28;20197;-71
2023/02/06 01:09:53;;;;;;;10.33;3.80;;;;;;;1.98;100.00;102773.19;4974653;28;20761;-73
2023/02/06 01:12:19;;;;;;;2.57;1.93;;;;;;;1.97;100.00;102777.75;4974328;28;20202;-72
2023/02/06 01:14:44;;;;;;;1.93;1.83;;;;;;;1.96;100.00;102773.38;4974742;28;20174;-71
2023/02/06 01:17:09;;;;;;;8.80;1.33;;;;;;;1.99;100.00;102791.03;4974552;28;20170;-73
2023/02/06 01:19:38;;;;;;;6.60;3.20;;;;;;;1.96;100.00;102789.56;4974593;28;20173;-71
2023/02/06 01:22:04;;;;;;;2.03;1.97;;;;;;;1.95;100.00;102789.75;4973997;28;20182;-71
2023/02/06 01:24:30;;;;;;;0.30;0.30;;;;;;;1.92;100.00;102787.47;4974404;28;20265;-71
2023/02/06 01:26:55;;;;;;;0.80;0.80;;;;;;;1.90;100.00;102781.44;4974274;28;20297;-73
2023/02/06 01:29:20;;;;;;;0.97;0.97;;;;;;;1.87;100.00;102787.19;4974364;28;20260;-71
2023/02/06 01:31:46;;;;;;;0.00;0.00;;;;;;;1.85;100.00;102779.31;4974134;28;20224;-71
2023/02/06 01:34:11;;;;;;;0.00;0.00;;;;;;;1.90;100.00;102778.75;4974322;28;20181;-71
2023/02/06 01:36:37;;;;;;;0.00;0.00;;;;;;;1.91;100.00;102780.41;4974256;28;20248;-74
2023/02/06 01:39:06;;;;;;;0.00;0.00;;;;;;;1.94;100.00;102785.41;4974286;28;20182;-71
2023/02/06 01:41:31;;;;;;;0.77;0.77;;;;;;;1.89;100.00;102782.47;4972706;28;20650;-72
2023/02/06 01:44:15;;;;;;;0.97;0.97;;;;;;;1.85;100.00;102792.78;4974240;28;20178;-71
2023/02/06 01:46:44;;;;;;;9.53;1.23;;;;;;;1.90;100.00;102789.53;4974005;28;20637;-72
2023/02/06 01:49:19;;;;;;;0.00;0.00;;;;;;;1.92;100.00;102782.06;4974088;28;20170;-72
2023/02/06 01:51:45;;;;;;;0.97;0.97;;;;;;;1.92;100.00;102787.47;4972601;28;20336;-72
2023/02/06 01:54:12;;;;;;;0.30;0.30;;;;;;;1.90;100.00;102786.84;4972659;28;20178;-71
2023/02/06 01:56:53;;;;;;;0.13;0.13;;;;;;;1.92;100.00;102790.16;4972540;28;20641;-71
2023/02/06 01:59:20;;;;;;;6.17;3.30;;;;;;;1.90;100.00;102790.38;4973926;28;20189;-70
2023/02/06 02:01:45;;;;;;;1.90;1.80;;;;;;;1.92;100.00;102793.69;4973686;28;20178;-71
2023/02/06 02:04:18;;;;;;;0.23;0.23;;;;;;;1.88;100.00;102783.47;4973839;28;20177;-71
2023/02/06 02:06:53;;;;;;;2.50;2.30;;;;;;;1.90;100.00;102794.91;4973716;28;20304;-73
2023/02/06 02:09:19;;;;;;;7.77;3.93;;;;;;;1.89;100.00;102791.41;4973718;28;20294;-72
2023/02/06 02:11:44;;;;;;;1.23;1.20;;;;;;;1.83;100.00;102784.06;4973340;28;20206;-73
2023/02/06 02:14:13;;;;;;;2.03;1.93;;;;;;;1.80;100.00;102779.06;4973523;28;20603;-71
2023/02/06 02:16:42;;;;;;;3.03;2.33;;;;;;;1.76;100.00;102781.34;4973449;28;20661;-71
2023/02/06 02:19:25;;;;;;;1.73;1.63;;;;;;;1.74;100.00;102783.41;4973448;28;20260;-71
2023/02/06 02:22:17;;;;;;;2.63;2.43;;;;;;;1.70;100.00;102786.66;4973196;28;20278;-71
2023/02/06 02:25:06;;;;;;;17.10;4.43;;;;;;;1.71;100.00;102793.72;4973352;28;20178;-71
2023/02/06 02:27:43;;;;;;;6.53;3.00;;;;;;;1.63;100.00;102789.31;4973305;28;20174;-71
2023/02/06 02:30:50;;;;;;;4.60;3.70;;;;;;;1.60;100.00;102792.41;4973162;28;20174;-72
2023/02/06 02:33:33;;;;;;;0.73;0.73;;;;;;;1.56;100.00;102790.25;4972808;28;20185;-70
2023/02/06 02:36:22;;;;;;;0.90;0.90;;;;;;;1.56;100.00;102804.56;4973166;28;20178;-71
2023/02/06 02:39:07;;;;;;;2.83;2.73;;;;;;;1.56;100.00;102801.03;4973173;28;20900;-71
2023/02/06 02:41:35;;;;;;;0.63;0.63;;;;;;;1.57;100.00;102797.31;4971610;28;20187;-71
2023/02/06 02:44:06;;;;;;;0.40;0.40;;;;;;;1.60;100.00;102802.34;4973090;28;20177;-71
2023/02/06 02:46:36;;;;;;;1.40;0.63;;;;;;;1.61;100.00;102802.16;4972943;28;20193;-71
2023/02/06 02:49:12;;;;;;;0.23;0.23;;;;;;;1.61;100.00;102804.84;4973092;28;20201;-71
2023/02/06 02:51:39;;;;;;;5.63;4.03;;;;;;;1.57;100.00;102797.31;4972698;28;20285;-72
2023/02/06 02:54:04;;;;;;;1.13;1.13;;;;;;;1.57;100.00;102800.84;4972917;28;20166;-72
2023/02/06 02:56:32;;;;;;;3.00;2.53;;;;;;;1.57;100.00;102790.06;4972880;28;20177;-71
2023/02/06 02:59:02;;;;;;;5.87;3.07;;;;;;;1.62;100.00;102790.34;4972760;28;20201;-71
2023/02/06 03:01:35;;;;;;;18.27;2.23;;;;;;;1.63;100.00;102791.16;4972638;28;20232;-72
2023/02/06 03:04:11;;;;;;;0.57;0.57;;;;;;;1.62;100.00;102797.59;4972360;28;20177;-74
2023/02/06 03:06:58;;;;;;;2.07;2.07;;;;;;;1.48;100.00;102796.63;4972815;28;20381;-71
2023/02/06 03:09:55;;;;;;;0.00;0.00;;;;;;;1.61;100.00;102798.63;4972713;28;20174;-72
2023/02/06 03:12:23;;;;;;;0.00;0.00;;;;;;;1.63;100.00;102800.09;4935992;28;20322;-72
2023/02/06 03:14:56;;;;;;;0.07;0.07;;;;;;;1.75;100.00;102801.22;4971382;28;20182;-71
2023/02/06 03:17:32;;;;;;;4.67;4.27;;;;;;;1.76;100.00;102788.59;4972600;28;20174;-72
2023/02/06 03:20:00;;;;;;;0.00;0.00;;;;;;;1.74;100.00;102790.66;4972410;28;20178;-72
2023/02/06 03:22:28;;;;;;;1.40;0.90;;;;;;;1.76;100.00;102789.44;4972176;28;20540;-73
2023/02/06 03:24:55;;;;;;;7.53;5.77;;;;;;;1.68;100.00;102778.78;4971293;28;20605;-73
2023/02/06 03:27:21;;;;;;;1.47;1.47;;;;;;;1.51;100.00;102771.16;4972450;28;20182;-71
2023/02/06 03:29:49;;;;;;;4.27;3.50;;;;;;;1.39;100.00;102771.69;4972257;28;20189;-70
2023/02/06 03:32:22;;;;;;;3.57;3.27;;;;;;;1.28;100.00;102780.25;4971998;28;20728;-71
2023/02/06 03:34:58;;;;;;;0.10;0.10;;;;;;;1.19;100.00;102789.50;4972518;28;20170;-76
2023/02/06 03:37:24;;;;;;;6.27;5.67;;;;;;;1.12;100.00;102789.41;4972468;28;20256;-72
2023/02/06 03:39:49;;;;;;;5.23;4.83;;;;;;;1.05;100.00;102799.28;4972070;28;20265;-71
2023/02/06 03:42:16;;;;;;;2.00;1.90;;;;;;;0.95;100.00;102790.69;4971756;28;20178;-80
2023/02/06 03:44:48;;;;;;;1.20;0.63;;;;;;;0.91;100.00;102783.19;4972089;28;20181;-72
2023/02/06 03:47:16;;;;;;;0.50;0.50;;;;;;;0.84;100.00;102778.53;4971042;28;20593;-72
2023/02/06 03:49:43;;;;;;;0.00;0.00;;;;;;;0.87;100.00;102788.97;4972148;28;20732;-80
2023/02/06 03:52:13;;;;;;;7.10;4.57;;;;;;;0.84;100.00;102781.25;4970509;28;20644;-78
2023/02/06 03:54:48;;;;;;;7.37;3.33;;;;;;;0.80;100.00;102787.19;4972069;28;20406;-76
2023/02/06 03:57:18;;;;;;;0.00;0.00;;;;;;;0.86;100.00;102783.72;4972584;28;20224;-78
2023/02/06 03:59:45;;;;;;;0.00;0.00;;;;;;;0.84;100.00;102777.72;4970820;28;20174;-82
2023/02/06 04:02:11;;;;;;;1.40;1.40;;;;;;;0.86;100.00;102771.13;4970401;28;20596;-82
2023/02/06 04:04:40;;;;;;;2.70;2.03;;;;;;;0.83;100.00;102773.34;4973195;28;20188;-81
2023/02/06 04:07:18;;;;;;;2.77;2.50;;;;;;;0.90;100.00;102766.22;4975616;28;20178;-83
2023/02/06 04:09:43;;;;;;;6.23;5.57;;;;;;;0.89;100.00;102761.84;4972518;28;20176;-79
2023/02/06 04:12:09;;;;;;;0.57;0.57;;;;;;;0.81;100.00;102759.25;4971699;28;20209;-79
2023/02/06 04:14:35;;;;;;;0.10;0.10;;;;;;;0.90;100.00;102768.91;4971565;28;20178;-82
2023/02/06 04:17:05;;;;;;;0.00;0.00;;;;;;;0.90;100.00;102758.13;4971529;28;20169;-80
2023/02/06 04:19:31;;;;;;;0.00;0.00;;;;;;;0.94;100.00;102759.41;4971495;28;20657;-82
2023/02/06 04:21:56;;;;;;;0.17;0.17;;;;;;;0.93;100.00;102756.91;4972001;28;20218;-82
2023/02/06 04:24:22;;;;;;;1.00;1.00;;;;;;;0.95;100.00;102752.19;4973341;28;20458;-82
2023/02/06 04:26:47;;;;;;;2.67;2.57;;;;;;;0.90;100.00;102747.38;4974260;28;20705;-83
2023/02/06 04:29:13;;;;;;;8.50;3.77;;;;;;;0.81;100.00;102760.09;4972755;28;20182;-83
2023/02/06 04:31:39;;;;;;;4.00;3.70;;;;;;;0.78;100.00;102755.09;4972256;28;20210;-83
2023/02/06 04:34:04;;;;;;;4.27;3.80;;;;;;;0.70;100.00;102751.69;4970717;28;20240;-83
2023/02/06 04:36:29;;;;;;;7.43;5.10;;;;;;;0.69;100.00;102758.91;4971958;28;20178;-82
2023/02/06 04:38:55;;;;;;;0.73;0.73;;;;;;;0.65;100.00;102757.63;4971662;28;20272;-83
2023/02/06 04:41:20;;;;;;;2.60;2.40;;;;;;;0.63;100.00;102758.84;4971487;28;20206;-83
2023/02/06 04:43:46;;;;;;;0.57;0.47;;;;;;;0.55;100.00;102763.28;4972239;28;20284;-82
2023/02/06 04:46:11;;;;;;;1.60;1.50;;;;;;;0.56;100.00;102759.59;4971603;28;20182;-82
2023/02/06 04:48:36;;;;;;;3.60;2.63;;;;;;;0.54;100.00;102750.03;4970430;28;20209;-81
2023/02/06 04:51:02;;;;;;;7.33;2.50;;;;;;;0.46;100.00;102747.47;4971435;28;20333;-84
2023/02/06 04:53:27;;;;;;;0.10;0.10;;;;;;;0.44;100.00;102744.13;4970467;28;20182;-81
2023/02/06 04:55:55;;;;;;;10.50;6.33;;;;;;;0.42;100.00;102754.22;4972141;28;20174;-82
2023/02/06 04:58:20;;;;;;;0.00;0.00;;;;;;;0.39;100.00;102755.44;4993874;28;20188;-84
2023/02/06 05:00:46;;;;;;;0.10;0.10;;;;;;;0.43;100.00;102750.50;4994135;28;20178;-79
2023/02/06 05:03:11;;;;;;;5.90;5.27;;;;;;;0.41;100.00;102742.63;4994221;28;20205;-81
2023/02/06 05:05:37;;;;;;;0.00;0.00;;;;;;;0.40;100.00;102751.72;4992959;28;20192;-81
2023/02/06 05:08:02;;;;;;;0.00;0.00;;;;;;;0.42;100.00;102755.06;4994145;28;20185;-82
2023/02/06 05:10:27;;;;;;;0.43;0.43;;;;;;;0.36;100.00;102761.19;4994423;28;20177;-83
2023/02/06 05:12:54;;;;;;;1.23;1.23;;;;;;;0.34;100.00;102752.47;4992790;28;20212;-82
2023/02/06 05:15:20;;;;;;;0.33;0.33;;;;;;;0.38;100.00;102758.31;4994131;28;20211;-82
2023/02/06 05:17:45;;;;;;;3.07;2.87;;;;;;;0.40;100.00;102759.78;4994080;28;20550;-81
2023/02/06 05:20:11;;;;;;;2.10;1.83;;;;;;;0.39;100.00;102760.81;4993822;28;20355;-83
2023/02/06 05:22:36;;;;;;;6.60;5.50;;;;;;;0.34;100.00;102755.16;4993622;28;20189;-81
2023/02/06 05:25:02;;;;;;;5.57;5.17;;;;;;;0.26;100.00;102756.09;4994100;28;20200;-80
2023/02/06 05:27:27;;;;;;;2.67;1.97;;;;;;;0.24;100.00;102757.28;4993863;28;20183;-83
2023/02/06 05:29:52;;;;;;;8.93;4.10;;;;;;;0.17;100.00;102761.75;4993935;28;20673;-80
2023/02/06 05:32:18;;;;;;;2.77;2.67;;;;;;;0.10;100.00;102755.44;4992192;28;20220;-82
2023/02/06 05:34:44;;;;;;;0.83;0.40;;;;;;;0.06;100.00;102762.22;4993926;28;20176;-82
2023/02/06 05:37:10;;;;;;;5.60;4.33;;;;;;;0.06;100.00;102770.28;4993718;28;20521;-83
2023/02/06 05:39:35;;;;;;;5.17;4.63;;;;;;;0.04;100.00;102770.47;4993669;28;20184;-83
2023/02/06 05:42:00;;;;;;;0.73;0.73;;;;;;;0.04;100.00;102767.78;4975832;28;20709;-82
2023/02/06 05:44:26;;;;;;;1.20;1.20;;;;;;;0.10;100.00;102767.03;4993636;28;20173;-78
2023/02/06 05:46:51;;;;;;;13.00;7.50;;;;;;;0.05;100.00;102777.50;4992217;28;20641;-82
2023/02/06 05:49:17;;;;;;;1.60;1.50;;;;;;;-0.01;100.00;102773.69;4992306;28;20409;-82
2023/02/06 05:51:42;;;;;;;2.00;1.90;;;;;;;-0.04;100.00;102768.69;4993030;28;20212;-83
2023/02/06 05:54:07;;;;;;;1.23;1.23;;;;;;;-0.08;100.00;102778.13;4992209;28;20637;-83
2023/02/06 05:56:33;;;;;;;0.00;0.00;;;;;;;-0.09;100.00;102776.47;4993459;28;20176;-82
2023/02/06 05:58:58;;;;;;;3.63;3.37;;;;;;;-0.10;100.00;102782.84;4991944;28;20190;-81
2023/02/06 06:01:24;;;;;;;7.63;6.93;;;;;;;-0.22;100.00;102783.47;4993121;28;20208;-80
2023/02/06 06:03:50;;;;;;;0.10;0.10;;;;;;;-0.20;100.00;102784.97;4993087;28;20177;-82
2023/02/06 06:06:15;;;;;;;7.30;5.40;;;;;;;-0.23;100.00;102787.19;4993146;28;20188;-83
2023/02/06 06:08:40;;;;;;;1.13;1.07;;;;;;;-0.28;100.00;102792.28;4992175;28;20256;-82
2023/02/06 06:11:06;;;;;;;1.03;1.03;;;;;;;-0.25;100.00;102790.06;4991819;28;20688;-84
2023/02/06 06:13:32;;;;;;;0.00;0.00;;;;;;;-0.28;100.00;102790.44;4993220;28;20177;-81
2023/02/06 06:15:57;;;;;;;0.23;0.23;;;;;;;-0.41;100.00;102798.25;4993038;28;20173;-82
2023/02/06 06:18:23;;;;;;;0.00;0.00;;;;;;;-0.44;100.00;102802.13;4992839;28;20428;-81
2023/02/06 06:20:48;;;;;;;0.70;0.70;;;;;;;-0.35;100.00;102811.78;4992712;28;20199;-80
2023/02/06 06:23:14;;;;;;;4.70;0.97;;;;;;;-0.41;100.00;102817.06;4991642;28;20197;-83
2023/02/06 06:25:39;;;;;;;2.43;1.27;;;;;;;-0.47;100.00;102813.22;4992612;28;20236;-82
2023/02/06 06:28:05;;;;;;;2.30;0.93;;;;;;;-0.35;100.00;102819.84;4992995;28;20204;-84
2023/02/06 06:30:31;;;;;;;0.27;0.27;;;;;;;-0.12;100.00;102816.31;4992501;28;20185;-80
2023/02/06 06:32:56;;;;;;;2.63;2.53;;;;;;;-0.07;100.00;102812.03;4992906;28;20208;-82
2023/02/06 06:35:22;;;;;;;0.00;0.00;;;;;;;-0.05;100.00;102815.38;4992735;28;20701;-84
2023/02/06 06:37:47;;;;;;;0.00;0.00;;;;;;;-0.25;100.00;102819.59;4992585;28;20177;-79
2023/02/06 06:40:12;;;;;;;0.20;0.20;;;;;;;-0.04;100.00;102822.41;4992781;28;20181;-84
2023/02/06 06:42:38;;;;;;;5.57;2.40;;;;;;;0.03;100.00;102819.84;4992502;28;20169;-83
2023/02/06 06:45:04;;;;;;;0.97;0.97;;;;;;;0.11;100.00;102818.91;4992443;28;20179;-84
2023/02/06 06:47:32;;;;;;;0.70;0.67;;;;;;;0.22;100.00;102811.25;4974813;28;20239;-83
2023/02/06 06:49:57;;;;;;;1.10;1.10;;;;;;;0.21;100.00;102822.19;4992188;28;20713;-84
2023/02/06 06:52:23;;;;;;;0.00;0.00;;;;;;;0.23;100.00;102814.78;4992369;28;20215;-83
2023/02/06 06:54:48;;;;;;;2.87;2.63;;;;;;;0.29;100.00;102827.50;4992669;28;20648;-86
2023/02/06 06:57:13;;;;;;;1.00;1.00;;;;;;;0.38;100.00;102833.59;4991025;28;20557;-76
2023/02/06 06:59:39;;;;;;;7.07;5.00;;;;;;;0.39;100.00;102832.56;4992095;28;20545;-78
2023/02/06 07:02:05;;;;;;;0.00;0.00;;;;;;;0.32;100.00;102832.50;4991821;28;20220;-71
2023/02/06 07:04:32;;;;;;;0.00;0.00;;;;;;;0.26;100.00;102825.97;4993384;28;20193;-81
2023/02/06 07:06:57;;;;;;;3.20;2.83;;;;;;;0.14;100.00;102823.91;4996499;28;20196;-78
2023/02/06 07:09:22;;;;;;;11.37;5.10;;;;;;;0.06;100.00;102830.22;4990697;28;20173;-81
2023/02/06 07:11:48;;;;;;;1.60;1.50;;;;;;;0.01;100.00;102821.91;4991718;28;20205;-78
2023/02/06 07:14:13;;;;;;;3.93;1.90;;;;;;;-0.03;100.00;102820.56;4991793;28;20668;-75
2023/02/06 07:16:38;;;;;;;2.83;2.70;;;;;;;-0.03;100.00;102826.78;4990403;28;20185;-71
2023/02/06 07:19:04;;;;;;;3.33;3.13;;;;;;;0.00;100.00;102830.97;4990532;28;20526;-74
2023/02/06 07:21:29;;;;;;;9.90;2.40;;;;;;;-0.04;100.00;102824.28;4991175;28;20190;-71
2023/02/06 07:23:55;;;;;;;12.50;2.33;;;;;;;-0.03;100.00;102823.25;4991916;28;20188;-75
2023/02/06 07:26:20;;;;;;;13.87;6.03;;;;;;;-0.05;100.00;102830.66;4991809;28;20213;-71
2023/02/06 07:28:48;;;;;;;1.63;1.53;;;;;;;-0.08;100.00;102831.03;4991808;28;20768;-72
2023/02/06 07:31:14;;;;;;;6.13;3.83;;;;;;;-0.18;100.00;102822.38;4991358;28;20303;-74
2023/02/06 07:33:39;;;;;;;3.67;3.47;;;;;;;-0.18;100.00;102838.50;4991694;28;20421;-71
2023/02/06 07:36:09;;;;;;;3.13;2.93;;;;;;;-0.20;100.00;102841.38;4990352;28;20184;-71
2023/02/06 07:38:34;;;;;;;4.13;3.50;;;;;;;-0.21;100.00;102836.19;4991527;28;20212;-77
2023/02/06 07:41:03;;;;;;;2.07;1.97;;;;;;;-0.21;100.00;102830.81;4991691;28;20459;-76
2023/02/06 07:43:29;;;;;;;3.57;2.27;;;;;;;-0.23;100.00;102841.75;4990020;28;20660;-76
2023/02/06 07:46:00;;;;;;;5.10;1.63;;;;;;;-0.16;100.00;102837.28;4991433;28;20457;-73
2023/02/06 07:48:27;;;;;;;3.47;2.07;;;;;;;-0.20;100.00;102835.16;4974527;28;20428;-73
2023/02/06 07:50:52;;;;;;;6.27;5.77;;;;;;;-0.17;100.00;102840.16;4991088;28;20511;-81
2023/02/06 07:53:17;;;;;;;2.67;2.57;;;;;;;-0.14;100.00;102837.16;4991626;28;20511;-71
2023/02/06 07:55:43;;;;;;;3.87;2.97;;;;;;;-0.14;100.00;102843.34;4990119;28;20280;-78
2023/02/06 07:58:11;;;;;;;3.97;3.67;;;;;;;-0.24;100.00;102849.97;4991709;28;20260;-76
2023/02/06 08:00:37;;;;;;;10.13;2.60;;;;;;;-0.14;100.00;102850.56;4991268;28;20653;-83
2023/02/06 08:03:03;;;;;;;4.97;4.53;;;;;;;-0.13;100.00;102844.19;4973768;28;20181;-72
2023/02/06 08:05:29;;;;;;;3.63;3.43;;;;;;;-0.28;100.00;102844.16;4990272;28;20185;-78
2023/02/06 08:07:55;;;;;;;2.40;2.30;;;;;;;-0.25;100.00;102841.09;4991170;28;20185;-83
2023/02/06 08:10:21;;;;;;;0.53;0.53;;;;;;;-0.17;100.00;102834.78;4991064;28;20427;-77
2023/02/06 08:12:46;;;;;;;6.87;4.43;;;;;;;-0.14;100.00;102834.47;4991257;28;20295;-83
2023/02/06 08:15:12;;;;;;;14.40;3.73;;;;;;;-0.16;100.00;102826.56;4991254;28;20827;-78
2023/02/06 08:17:43;;;;;;;6.13;3.43;;;;;;;-0.16;100.00;102837.28;4991145;28;20641;-80
2023/02/06 08:20:11;;;;;;;2.63;2.37;;;;;;;-0.14;100.00;102834.47;4991114;28;20232;-83
2023/02/06 08:22:37;;;;;;;1.30;1.20;;;;;;;-0.05;100.00;102844.94;4989856;28;20275;-85
2023/02/06 08:25:03;;;;;;;2.10;1.63;;;;;;;0.00;100.00;102841.72;4991163;28;20181;-83
2023/02/06 08:27:29;;;;;;;3.50;2.40;;;;;;;-0.05;100.00;102833.34;4991444;28;20177;-74
2023/02/06 08:29:56;;;;;;;2.50;2.30;;;;;;;-0.10;100.00;102836.59;4991123;28;20749;-83
2023/02/06 08:32:21;;;;;;;3.27;3.07;;;;;;;-0.10;100.00;102828.53;4992570;28;20205;-82
2023/02/06 08:34:46;;;;;;;3.53;3.23;;;;;;;-0.12;100.00;102827.88;4993562;28;20432;-82
2023/02/06 08:37:11;;;;;;;3.33;3.03;;;;;;;-0.12;100.00;102827.06;4994782;28;20211;-82
2023/02/06 08:39:37;;;;;;;11.77;7.73;;;;;;;-0.20;100.00;102825.25;4994789;28;20205;-81
2023/02/06 08:42:02;;;;;;;6.97;4.60;;;;;;;-0.32;100.00;102827.53;4994545;28;20173;-81
2023/02/06 08:44:28;;;;;;;0.43;0.43;;;;;;;-0.27;100.00;102821.63;4994692;28;20181;-83
2023/02/06 08:46:53;;;;;;;5.93;3.87;;;;;;;-0.22;100.00;102821.91;4993340;28;20180;-77
2023/02/06 08:49:21;;;;;;;5.63;4.67;;;;;;;-0.23;100.00;102822.94;4993741;28;20649;-80
2023/02/06 08:51:49;;;;;;;0.77;0.77;;;;;;;-0.16;100.00;102829.25;4994798;28;20205;-89
2023/02/06 08:54:16;;;;;;;3.33;3.10;;;;;;;-0.18;100.00;102823.22;4993796;28;20192;-82
2023/02/06 08:56:43;;;;;;;2.63;2.50;;;;;;;-0.22;100.00;102824.59;4995083;28;20416;-84
2023/02/06 08:59:10;;;;;;;5.03;4.53;;;;;;;-0.14;100.00;102829.09;4993598;28;20540;-84
2023/02/06 09:01:35;;;;;;;20.47;6.87;;;;;;;-0.12;100.00;102827.88;4993063;28;20853;-86
2023/02/06 09:04:06;;;;;;;0.23;0.23;;;;;;;-0.06;100.00;102820.94;4994555;28;20424;-87
2023/02/06 09:06:37;;;;;;;0.50;0.50;;;;;;;-0.05;100.00;102807.31;4994715;28;20185;-81
2023/02/06 09:09:03;;;;;;;18.30;6.00;;;;;;;-0.04;100.00;102808.16;4993424;28;20427;-87
2023/02/06 09:11:29;;;;;;;12.77;6.33;;;;;;;-0.03;100.00;102805.28;4989408;28;20233;-87
2023/02/06 09:13:57;;;;;;;6.73;6.17;;;;;;;-0.05;100.00;102809.16;4983588;28;20465;-86
2023/02/06 09:16:24;;;;;;;9.87;4.80;;;;;;;-0.05;100.00;102803.78;4992272;28;20272;-85
2023/02/06 09:18:52;;;;;;;2.37;2.27;;;;;;;-0.05;100.00;102796.56;4994210;28;20620;-89
2023/02/06 09:21:20;;;;;;;2.83;1.17;;;;;;;0.06;100.00;102797.97;4993378;28;20428;-84
2023/02/06 09:23:49;;;;;;;6.03;1.70;;;;;;;0.15;100.00;102790.69;4992616;28;20474;-79
2023/02/06 09:26:18;;;;;;;3.27;2.20;;;;;;;0.16;100.00;102793.19;4992272;28;20177;-79
2023/02/06 09:28:43;;;;;;;30.73;9.33;;;;;;;0.11;100.00;102792.03;4993799;28;20216;-82
2023/02/06 09:31:09;;;;;;;13.03;5.37;;;;;;;0.12;100.00;102793.72;4993439;28;20468;-78
2023/02/06 09:33:36;;;;;;;24.60;7.73;;;;;;;0.11;100.00;102795.56;4976353;28;20192;-78
2023/02/06 09:36:08;;;;;;;3.17;3.03;;;;;;;0.20;100.00;102794.47;4993585;28;20177;-80
2023/02/06 09:38:34;;;;;;;3.77;3.37;;;;;;;0.28;100.00;102794.38;4993512;28;20420;-79
2023/02/06 09:41:02;;;;;;;6.10;4.07;;;;;;;0.32;100.00;102789.47;4986865;28;20178;-78
2023/02/06 09:43:30;;;;;;;6.77;6.07;;;;;;;0.31;100.00;102781.59;4982631;28;20181;-78
2023/02/06 09:46:00;;;;;;;11.93;5.40;;;;;;;0.30;100.00;102788.84;4983313;28;20277;-80
2023/02/06 09:48:29;;;;;;;8.90;5.17;;;;;;;0.37;100.00;102799.66;4981748;28;20185;-87
2023/02/06 09:51:50;;;;;;;2.80;2.60;;;;;;;0.45;100.00;102794.22;4981266;28;20437;-76
2023/02/06 09:54:30;;;;;;;2.83;2.73;;;;;;;0.65;100.00;102797.97;4961059;28;20635;-78
2023/02/06 09:57:06;;;;;;;0.40;0.40;;;;;;;0.72;100.00;102803.44;5008202;28;20254;-77
2023/02/06 09:59:41;;;;;;;0.07;0.07;;;;;;;0.83;100.00;102795.72;5012717;28;20173;-76
2023/02/06 10:02:15;;;;;;;0.00;0.00;;;;;;;0.83;100.00;102798.41;5012268;28;20164;-73
2023/02/06 10:05:12;;;;;;;0.00;0.00;;;;;;;0.88;100.00;102801.38;5012769;28;20180;-72
2023/02/06 10:07:50;;;;;;;0.70;0.67;;;;;;;1.03;100.00;102803.22;5012201;28;20190;-76
2023/02/06 10:10:41;;;;;;;4.40;1.53;;;;;;;1.11;100.00;102803.06;5012190;28;20200;-76
2023/02/06 10:13:27;;;;;;;1.70;1.70;;;;;;;1.03;100.00;102805.91;5012567;28;20290;-76
2023/02/06 10:16:04;;;;;;;1.70;1.60;;;;;;;1.03;100.00;102801.34;5012221;28;20180;-74
2023/02/06 10:18:38;;;;;;;1.23;1.23;;;;;;;1.08;100.00;102806.97;5012345;28;20165;-76
2023/02/06 10:21:21;;;;;;;1.87;1.77;;;;;;;1.31;100.00;102803.31;5012107;28;20267;-77
2023/02/06 10:23:57;;;;;;;0.00;0.00;;;;;;;1.35;100.00;102810.81;5012249;28;20200;-75
2023/02/06 10:26:23;;;;;;;0.10;0.10;;;;;;;1.49;100.00;102801.00;5012131;28;20533;-73
2023/02/06 10:28:52;;;;;;;0.20;0.20;;;;;;;1.50;100.00;102789.19;5012026;28;20181;-73
2023/02/06 10:31:23;;;;;;;6.23;4.33;;;;;;;1.69;100.00;102788.53;5011735;28;20274;-77
2023/02/06 10:33:57;;;;;;;0.00;0.00;;;;;;;1.64;100.00;102795.53;5012036;28;20187;-75
2023/02/06 10:36:46;;;;;;;0.93;0.93;;;;;;;1.62;100.00;102784.94;5011929;28;20176;-76
2023/02/06 10:39:38;;;;;;;0.40;0.40;;;;;;;1.67;100.00;102793.28;5004346;28;20312;-76
2023/02/06 10:42:21;;;;;;;8.77;2.47;;;;;;;1.56;100.00;102783.00;4991560;28;20170;-75
2023/02/06 10:44:55;;;;;;;38.80;6.00;;;;;;;1.46;100.00;102782.53;4992571;28;20197;-75
2023/02/06 10:47:34;;;;;;;0.57;0.57;;;;;;;1.50;100.00;102786.50;4992366;28;20175;-76
2023/02/06 10:50:18;;;;;;;13.23;4.23;;;;;;;1.54;100.00;102776.16;4992240;28;20197;-76
2023/02/06 10:52:45;;;;;;;1.03;1.03;;;;;;;1.57;100.00;102779.28;4983164;28;20300;-74
2023/02/06 10:55:29;;;;;;;0.43;0.43;;;;;;;1.68;100.00;102776.06;4990422;28;20292;-76
2023/02/06 10:58:09;;;;;;;0.00;0.00;;;;;;;1.88;100.00;102780.78;4991932;28;20175;-76
2023/02/06 11:00:35;;;;;;;0.40;0.40;;;;;;;1.92;100.00;102784.78;4991749;28;20272;-73
2023/02/06 11:03:05;;;;;;;1.00;1.00;;;;;;;1.96;100.00;102783.34;4991476;28;20257;-76
2023/02/06 11:05:31;;;;;;;0.00;0.00;;;;;;;2.11;100.00;102775.16;4991815;28;20177;-77
2023/02/06 11:08:07;;;;;;;1.30;1.30;;;;;;;2.02;100.00;102779.84;4991676;28;20680;-75
2023/02/06 11:10:32;;;;;;;5.77;2.07;;;;;;;1.96;100.00;102791.44;4991585;28;20268;-77
2023/02/06 11:13:28;;;;;;;0.20;0.20;;;;;;;1.97;100.00;102776.91;4990334;28;20239;-76
2023/02/06 11:16:01;;;;;;;0.00;0.00;;;;;;;1.96;100.00;102772.56;4991753;28;20184;-77
2023/02/06 11:18:39;;;;;;;0.00;0.00;;;;;;;2.11;100.00;102775.97;4991522;28;20613;-77
2023/02/06 11:21:08;;;;;;;0.53;0.53;;;;;;;1.95;100.00;102782.50;4991731;28;20177;-73
2023/02/06 11:23:33;;;;;;;8.03;1.40;;;;;;;1.89;100.00;102783.31;4991613;28;20204;-77
2023/02/06 11:25:59;;;;;;;0.83;0.83;;;;;;;1.96;100.00;102788.72;4991507;28;20268;-76
2023/02/06 11:28:25;;;;;;;3.17;2.80;;;;;;;1.85;100.00;102783.88;4991608;28;20166;-76
2023/02/06 11:30:57;;;;;;;0.03;0.03;;;;;;;1.82;100.00;102774.31;4991309;28;20260;-76